Main page
METAR-TAF:

METAR-TAF

Airports :

Decatur Municipal Airport

Decatur, Texas, United States

latitude: 33-15-16N, longitude: 097-34-50W, elevation: 1046 ft

Current weather observation

The report was made 28 minutes ago, at 18:55 UTC
Wind 7 mph from the East/Southeast
Temperature 88°F
Humidity 55%
Pressure 30.21 in. Hg
Visibility: 5 miles
Clear sky
haze

METAR: KLUD 201855Z AUTO 12006KT 5SM HZ CLR 31/21 A3021 RMK AO2 T03070205

Time: 14:23 (19:23 UTC)


TAF: missing

Weather observations and forecasts of more than 4000 airports (METAR and TAF reports).

The available stations are represented by yellow and red dots on the map.

Hover mouse over dot to see the name of the station.

Then click to see weather observations and forecasts.

To change the map : click on the green buttons with a black cross to zoom in, on the green button with a dash to zoom out, or on the green arrows for adjacent maps.


METAR-TAF: